sensor_id;sensor_type;location;lat;lon;timestamp;P1;durP1;ratioP1;P2;durP2;ratioP2
22705;SDS011;11520;51.198;4.468;2022-12-04T00:01:07;79.63;;;35.67;;
22705;SDS011;11520;51.198;4.468;2022-12-04T00:06:15;92.28;;;37.58;;
22705;SDS011;11520;51.198;4.468;2022-12-04T00:08:43;84.20;;;37.70;;
22705;SDS011;11520;51.198;4.468;2022-12-04T00:11:12;80.90;;;37.05;;
22705;SDS011;11520;51.198;4.468;2022-12-04T00:13:46;86.63;;;37.50;;
22705;SDS011;11520;51.198;4.468;2022-12-04T00:16:14;80.22;;;37.40;;
22705;SDS011;11520;51.198;4.468;2022-12-04T00:18:44;86.18;;;38.13;;
22705;SDS011;11520;51.198;4.468;2022-12-04T00:21:10;86.78;;;38.15;;
22705;SDS011;11520;51.198;4.468;2022-12-04T00:23:40;86.55;;;38.28;;
22705;SDS011;11520;51.198;4.468;2022-12-04T00:26:08;83.18;;;38.15;;
22705;SDS011;11520;51.198;4.468;2022-12-04T00:28:37;86.75;;;37.70;;
22705;SDS011;11520;51.198;4.468;2022-12-04T00:31:05;80.22;;;36.60;;
22705;SDS011;11520;51.198;4.468;2022-12-04T00:33:32;86.70;;;39.45;;
22705;SDS011;11520;51.198;4.468;2022-12-04T00:35:59;87.45;;;39.00;;
22705;SDS011;11520;51.198;4.468;2022-12-04T00:38:27;79.43;;;36.38;;
22705;SDS011;11520;51.198;4.468;2022-12-04T00:40:54;84.35;;;38.22;;
22705;SDS011;11520;51.198;4.468;2022-12-04T00:43:20;85.35;;;39.20;;
22705;SDS011;11520;51.198;4.468;2022-12-04T00:45:46;87.40;;;36.60;;
22705;SDS011;11520;51.198;4.468;2022-12-04T00:48:12;85.65;;;38.35;;
22705;SDS011;11520;51.198;4.468;2022-12-04T00:50:38;84.57;;;36.83;;
22705;SDS011;11520;51.198;4.468;2022-12-04T00:53:04;84.95;;;38.20;;
22705;SDS011;11520;51.198;4.468;2022-12-04T00:55:30;94.38;;;39.08;;
22705;SDS011;11520;51.198;4.468;2022-12-04T00:57:56;87.97;;;37.53;;
22705;SDS011;11520;51.198;4.468;2022-12-04T01:00:21;87.75;;;39.00;;
22705;SDS011;11520;51.198;4.468;2022-12-04T01:02:47;89.18;;;38.42;;
22705;SDS011;11520;51.198;4.468;2022-12-04T01:05:13;92.32;;;39.63;;
22705;SDS011;11520;51.198;4.468;2022-12-04T01:07:40;86.93;;;37.78;;
22705;SDS011;11520;51.198;4.468;2022-12-04T01:10:06;85.70;;;37.38;;
22705;SDS011;11520;51.198;4.468;2022-12-04T01:12:33;89.40;;;38.25;;
22705;SDS011;11520;51.198;4.468;2022-12-04T01:14:58;90.53;;;38.97;;
22705;SDS011;11520;51.198;4.468;2022-12-04T01:17:26;83.28;;;37.63;;
22705;SDS011;11520;51.198;4.468;2022-12-04T01:19:52;90.13;;;36.58;;
22705;SDS011;11520;51.198;4.468;2022-12-04T01:22:18;95.00;;;39.78;;
22705;SDS011;11520;51.198;4.468;2022-12-04T01:24:46;92.93;;;37.75;;
22705;SDS011;11520;51.198;4.468;2022-12-04T01:27:11;89.68;;;37.40;;
22705;SDS011;11520;51.198;4.468;2022-12-04T01:29:37;92.22;;;38.50;;
22705;SDS011;11520;51.198;4.468;2022-12-04T01:32:03;92.80;;;37.05;;
22705;SDS011;11520;51.198;4.468;2022-12-04T01:34:28;86.32;;;36.22;;
22705;SDS011;11520;51.198;4.468;2022-12-04T01:36:54;95.47;;;38.72;;
22705;SDS011;11520;51.198;4.468;2022-12-04T01:39:20;87.43;;;37.05;;
22705;SDS011;11520;51.198;4.468;2022-12-04T01:41:46;93.65;;;39.47;;
22705;SDS011;11520;51.198;4.468;2022-12-04T01:44:13;93.80;;;38.67;;
22705;SDS011;11520;51.198;4.468;2022-12-04T01:46:43;94.85;;;38.50;;
22705;SDS011;11520;51.198;4.468;2022-12-04T01:49:13;92.65;;;37.60;;
22705;SDS011;11520;51.198;4.468;2022-12-04T01:51:44;89.35;;;37.83;;
22705;SDS011;11520;51.198;4.468;2022-12-04T01:54:18;91.82;;;37.95;;
22705;SDS011;11520;51.198;4.468;2022-12-04T01:56:53;86.75;;;36.00;;
22705;SDS011;11520;51.198;4.468;2022-12-04T01:59:34;92.38;;;38.20;;
22705;SDS011;11520;51.198;4.468;2022-12-04T02:02:07;86.35;;;35.58;;
22705;SDS011;11520;51.198;4.468;2022-12-04T02:04:35;80.85;;;35.58;;
22705;SDS011;11520;51.198;4.468;2022-12-04T02:07:02;84.07;;;35.35;;
22705;SDS011;11520;51.198;4.468;2022-12-04T02:09:28;86.78;;;36.85;;
22705;SDS011;11520;51.198;4.468;2022-12-04T02:26:36;89.38;;;37.78;;
22705;SDS011;11520;51.198;4.468;2022-12-04T02:34:46;90.10;;;37.28;;
22705;SDS011;11520;51.198;4.468;2022-12-04T02:37:27;89.32;;;37.65;;
22705;SDS011;11520;51.198;4.468;2022-12-04T02:42:30;88.85;;;38.13;;
22705;SDS011;11520;51.198;4.468;2022-12-04T02:45:07;79.35;;;36.03;;
22705;SDS011;11520;51.198;4.468;2022-12-04T02:47:39;89.47;;;39.53;;
22705;SDS011;11520;51.198;4.468;2022-12-04T02:50:07;88.43;;;37.83;;
22705;SDS011;11520;51.198;4.468;2022-12-04T02:52:45;92.75;;;37.50;;
22705;SDS011;11520;51.198;4.468;2022-12-04T02:55:20;88.72;;;34.83;;
22705;SDS011;11520;51.198;4.468;2022-12-04T02:57:52;93.63;;;38.55;;
22705;SDS011;11520;51.198;4.468;2022-12-04T03:00:21;91.28;;;39.15;;
22705;SDS011;11520;51.198;4.468;2022-12-04T03:02:50;96.07;;;38.38;;
22705;SDS011;11520;51.198;4.468;2022-12-04T03:05:19;91.28;;;39.22;;
22705;SDS011;11520;51.198;4.468;2022-12-04T03:07:54;87.90;;;38.10;;
22705;SDS011;11520;51.198;4.468;2022-12-04T03:10:29;91.35;;;36.72;;
22705;SDS011;11520;51.198;4.468;2022-12-04T03:13:02;88.65;;;37.95;;
22705;SDS011;11520;51.198;4.468;2022-12-04T03:15:44;91.13;;;37.97;;
22705;SDS011;11520;51.198;4.468;2022-12-04T03:18:16;87.18;;;37.05;;
22705;SDS011;11520;51.198;4.468;2022-12-04T03:20:49;91.15;;;38.05;;
22705;SDS011;11520;51.198;4.468;2022-12-04T03:23:21;89.75;;;37.90;;
22705;SDS011;11520;51.198;4.468;2022-12-04T03:26:03;89.57;;;36.78;;
22705;SDS011;11520;51.198;4.468;2022-12-04T03:31:14;87.53;;;36.90;;
22705;SDS011;11520;51.198;4.468;2022-12-04T03:33:46;88.60;;;36.58;;
22705;SDS011;11520;51.198;4.468;2022-12-04T03:39:19;87.65;;;37.00;;
22705;SDS011;11520;51.198;4.468;2022-12-04T03:41:55;88.32;;;37.72;;
22705;SDS011;11520;51.198;4.468;2022-12-04T03:44:40;88.05;;;39.22;;
22705;SDS011;11520;51.198;4.468;2022-12-04T03:47:34;80.47;;;37.17;;
22705;SDS011;11520;51.198;4.468;2022-12-04T03:57:49;84.68;;;37.33;;
22705;SDS011;11520;51.198;4.468;2022-12-04T04:00:21;87.47;;;36.97;;
22705;SDS011;11520;51.198;4.468;2022-12-04T04:02:57;84.82;;;37.08;;
22705;SDS011;11520;51.198;4.468;2022-12-04T04:05:28;85.65;;;37.33;;
22705;SDS011;11520;51.198;4.468;2022-12-04T04:07:59;90.57;;;37.15;;
22705;SDS011;11520;51.198;4.468;2022-12-04T04:10:48;88.45;;;37.40;;
22705;SDS011;11520;51.198;4.468;2022-12-04T04:13:16;87.72;;;38.53;;
22705;SDS011;11520;51.198;4.468;2022-12-04T04:16:05;82.05;;;35.65;;
22705;SDS011;11520;51.198;4.468;2022-12-04T04:18:51;94.78;;;39.25;;
22705;SDS011;11520;51.198;4.468;2022-12-04T04:21:37;85.32;;;38.67;;
22705;SDS011;11520;51.198;4.468;2022-12-04T04:24:44;83.78;;;37.15;;
22705;SDS011;11520;51.198;4.468;2022-12-04T04:27:16;91.85;;;38.35;;
22705;SDS011;11520;51.198;4.468;2022-12-04T04:29:42;84.78;;;38.45;;
22705;SDS011;11520;51.198;4.468;2022-12-04T04:32:20;86.88;;;37.60;;
22705;SDS011;11520;51.198;4.468;2022-12-04T04:35:03;81.85;;;35.35;;
22705;SDS011;11520;51.198;4.468;2022-12-04T04:40:35;89.38;;;37.95;;
22705;SDS011;11520;51.198;4.468;2022-12-04T04:46:05;81.18;;;36.40;;
22705;SDS011;11520;51.198;4.468;2022-12-04T04:48:45;89.30;;;38.40;;
22705;SDS011;11520;51.198;4.468;2022-12-04T04:51:14;84.13;;;37.53;;
22705;SDS011;11520;51.198;4.468;2022-12-04T04:53:42;86.45;;;37.78;;
22705;SDS011;11520;51.198;4.468;2022-12-04T04:56:11;83.82;;;37.65;;
22705;SDS011;11520;51.198;4.468;2022-12-04T04:58:38;81.32;;;37.22;;
22705;SDS011;11520;51.198;4.468;2022-12-04T05:01:07;84.50;;;37.90;;
22705;SDS011;11520;51.198;4.468;2022-12-04T05:03:38;78.63;;;36.85;;
22705;SDS011;11520;51.198;4.468;2022-12-04T05:06:05;85.03;;;38.42;;
22705;SDS011;11520;51.198;4.468;2022-12-04T05:08:31;84.35;;;37.58;;
22705;SDS011;11520;51.198;4.468;2022-12-04T05:10:57;87.75;;;38.45;;
22705;SDS011;11520;51.198;4.468;2022-12-04T05:13:22;87.68;;;37.88;;
22705;SDS011;11520;51.198;4.468;2022-12-04T05:16:04;83.05;;;37.03;;
22705;SDS011;11520;51.198;4.468;2022-12-04T05:18:33;80.28;;;36.78;;
22705;SDS011;11520;51.198;4.468;2022-12-04T05:21:04;79.40;;;35.85;;
22705;SDS011;11520;51.198;4.468;2022-12-04T05:23:35;84.78;;;38.35;;
22705;SDS011;11520;51.198;4.468;2022-12-04T05:26:01;79.82;;;37.28;;
22705;SDS011;11520;51.198;4.468;2022-12-04T05:28:28;84.88;;;38.30;;
22705;SDS011;11520;51.198;4.468;2022-12-04T05:30:57;78.43;;;36.63;;
22705;SDS011;11520;51.198;4.468;2022-12-04T05:33:24;79.75;;;36.95;;
22705;SDS011;11520;51.198;4.468;2022-12-04T05:35:58;80.03;;;36.25;;
22705;SDS011;11520;51.198;4.468;2022-12-04T05:38:26;78.55;;;36.72;;
22705;SDS011;11520;51.198;4.468;2022-12-04T05:40:52;78.55;;;36.15;;
22705;SDS011;11520;51.198;4.468;2022-12-04T05:43:17;80.25;;;36.92;;
22705;SDS011;11520;51.198;4.468;2022-12-04T05:45:43;77.13;;;35.72;;
22705;SDS011;11520;51.198;4.468;2022-12-04T05:48:12;76.50;;;37.58;;
22705;SDS011;11520;51.198;4.468;2022-12-04T05:50:38;79.30;;;36.10;;
22705;SDS011;11520;51.198;4.468;2022-12-04T05:53:05;75.97;;;36.58;;
22705;SDS011;11520;51.198;4.468;2022-12-04T05:55:31;76.82;;;35.88;;
22705;SDS011;11520;51.198;4.468;2022-12-04T05:57:56;77.38;;;36.92;;
22705;SDS011;11520;51.198;4.468;2022-12-04T06:00:23;80.45;;;37.55;;
22705;SDS011;11520;51.198;4.468;2022-12-04T06:02:48;76.00;;;36.58;;
22705;SDS011;11520;51.198;4.468;2022-12-04T06:05:15;71.75;;;34.47;;
22705;SDS011;11520;51.198;4.468;2022-12-04T06:07:41;82.82;;;37.20;;
22705;SDS011;11520;51.198;4.468;2022-12-04T06:10:08;79.95;;;37.38;;
22705;SDS011;11520;51.198;4.468;2022-12-04T06:12:34;77.63;;;36.03;;
22705;SDS011;11520;51.198;4.468;2022-12-04T06:15:00;79.70;;;37.13;;
22705;SDS011;11520;51.198;4.468;2022-12-04T06:17:27;82.10;;;37.72;;
22705;SDS011;11520;51.198;4.468;2022-12-04T06:19:52;79.22;;;37.95;;
22705;SDS011;11520;51.198;4.468;2022-12-04T06:22:19;78.90;;;37.70;;
22705;SDS011;11520;51.198;4.468;2022-12-04T06:24:45;81.07;;;38.63;;
22705;SDS011;11520;51.198;4.468;2022-12-04T06:27:11;84.10;;;39.33;;
22705;SDS011;11520;51.198;4.468;2022-12-04T06:29:36;82.38;;;39.47;;
22705;SDS011;11520;51.198;4.468;2022-12-04T06:32:04;85.55;;;38.28;;
22705;SDS011;11520;51.198;4.468;2022-12-04T06:34:30;82.88;;;37.97;;
22705;SDS011;11520;51.198;4.468;2022-12-04T06:36:56;80.13;;;37.85;;
22705;SDS011;11520;51.198;4.468;2022-12-04T06:39:22;83.75;;;39.67;;
22705;SDS011;11520;51.198;4.468;2022-12-04T06:41:48;88.97;;;41.50;;
22705;SDS011;11520;51.198;4.468;2022-12-04T06:44:14;89.32;;;40.13;;
22705;SDS011;11520;51.198;4.468;2022-12-04T06:46:40;88.03;;;40.55;;
22705;SDS011;11520;51.198;4.468;2022-12-04T06:49:09;86.45;;;39.75;;
22705;SDS011;11520;51.198;4.468;2022-12-04T06:54:05;84.90;;;39.80;;
22705;SDS011;11520;51.198;4.468;2022-12-04T06:56:32;80.63;;;39.22;;
22705;SDS011;11520;51.198;4.468;2022-12-04T06:58:59;85.30;;;40.72;;
22705;SDS011;11520;51.198;4.468;2022-12-04T07:01:27;88.25;;;39.70;;
22705;SDS011;11520;51.198;4.468;2022-12-04T07:03:54;90.13;;;37.90;;
22705;SDS011;11520;51.198;4.468;2022-12-04T07:06:21;89.78;;;39.00;;
22705;SDS011;11520;51.198;4.468;2022-12-04T07:08:53;81.13;;;38.55;;
22705;SDS011;11520;51.198;4.468;2022-12-04T07:14:10;94.40;;;42.13;;
22705;SDS011;11520;51.198;4.468;2022-12-04T07:16:38;83.85;;;39.20;;
22705;SDS011;11520;51.198;4.468;2022-12-04T07:21:38;82.63;;;38.92;;
22705;SDS011;11520;51.198;4.468;2022-12-04T07:24:17;86.45;;;40.75;;
22705;SDS011;11520;51.198;4.468;2022-12-04T07:26:43;86.40;;;39.65;;
22705;SDS011;11520;51.198;4.468;2022-12-04T07:29:13;90.43;;;40.00;;
22705;SDS011;11520;51.198;4.468;2022-12-04T07:31:39;88.28;;;40.92;;
22705;SDS011;11520;51.198;4.468;2022-12-04T07:34:04;87.22;;;39.28;;
22705;SDS011;11520;51.198;4.468;2022-12-04T07:36:31;91.18;;;41.20;;
22705;SDS011;11520;51.198;4.468;2022-12-04T07:38:59;83.70;;;38.92;;
22705;SDS011;11520;51.198;4.468;2022-12-04T07:41:27;89.40;;;40.47;;
22705;SDS011;11520;51.198;4.468;2022-12-04T07:43:54;87.82;;;40.83;;
22705;SDS011;11520;51.198;4.468;2022-12-04T07:46:24;84.10;;;39.33;;
22705;SDS011;11520;51.198;4.468;2022-12-04T07:48:53;92.60;;;41.60;;
22705;SDS011;11520;51.198;4.468;2022-12-04T07:51:22;85.10;;;39.58;;
22705;SDS011;11520;51.198;4.468;2022-12-04T07:56:22;85.78;;;39.60;;
22705;SDS011;11520;51.198;4.468;2022-12-04T07:58:48;88.57;;;41.05;;
22705;SDS011;11520;51.198;4.468;2022-12-04T08:01:17;90.63;;;40.22;;
22705;SDS011;11520;51.198;4.468;2022-12-04T08:03:46;84.65;;;39.03;;
22705;SDS011;11520;51.198;4.468;2022-12-04T08:06:16;81.43;;;39.35;;
22705;SDS011;11520;51.198;4.468;2022-12-04T08:08:47;89.53;;;41.28;;
22705;SDS011;11520;51.198;4.468;2022-12-04T08:11:17;87.55;;;39.03;;
22705;SDS011;11520;51.198;4.468;2022-12-04T08:16:29;90.88;;;40.13;;
22705;SDS011;11520;51.198;4.468;2022-12-04T08:18:57;82.35;;;39.55;;
22705;SDS011;11520;51.198;4.468;2022-12-04T08:23:55;82.93;;;39.03;;
22705;SDS011;11520;51.198;4.468;2022-12-04T08:28:55;86.60;;;40.58;;
22705;SDS011;11520;51.198;4.468;2022-12-04T08:31:23;91.05;;;41.53;;
22705;SDS011;11520;51.198;4.468;2022-12-04T08:33:53;88.35;;;41.42;;
22705;SDS011;11520;51.198;4.468;2022-12-04T08:36:21;85.85;;;40.13;;
22705;SDS011;11520;51.198;4.468;2022-12-04T08:38:49;85.22;;;38.97;;
22705;SDS011;11520;51.198;4.468;2022-12-04T08:41:16;90.03;;;40.85;;
22705;SDS011;11520;51.198;4.468;2022-12-04T08:43:46;92.35;;;41.97;;
22705;SDS011;11520;51.198;4.468;2022-12-04T08:46:15;87.05;;;40.17;;
22705;SDS011;11520;51.198;4.468;2022-12-04T08:48:43;87.97;;;41.50;;
22705;SDS011;11520;51.198;4.468;2022-12-04T08:51:15;84.75;;;39.40;;
22705;SDS011;11520;51.198;4.468;2022-12-04T08:53:44;85.20;;;40.22;;
22705;SDS011;11520;51.198;4.468;2022-12-04T08:56:10;88.63;;;39.33;;
22705;SDS011;11520;51.198;4.468;2022-12-04T08:58:42;90.63;;;40.08;;
22705;SDS011;11520;51.198;4.468;2022-12-04T09:01:11;90.88;;;41.53;;
22705;SDS011;11520;51.198;4.468;2022-12-04T09:03:40;84.00;;;40.03;;
22705;SDS011;11520;51.198;4.468;2022-12-04T09:06:07;89.50;;;42.38;;
22705;SDS011;11520;51.198;4.468;2022-12-04T09:11:13;89.15;;;41.22;;
22705;SDS011;11520;51.198;4.468;2022-12-04T09:13:41;91.55;;;41.10;;
22705;SDS011;11520;51.198;4.468;2022-12-04T09:18:40;89.88;;;40.85;;
22705;SDS011;11520;51.198;4.468;2022-12-04T09:21:08;88.47;;;41.03;;
22705;SDS011;11520;51.198;4.468;2022-12-04T09:23:37;87.00;;;40.97;;
22705;SDS011;11520;51.198;4.468;2022-12-04T09:26:23;93.95;;;42.28;;
22705;SDS011;11520;51.198;4.468;2022-12-04T09:28:49;91.32;;;41.08;;
22705;SDS011;11520;51.198;4.468;2022-12-04T09:31:19;86.10;;;39.92;;
22705;SDS011;11520;51.198;4.468;2022-12-04T09:33:46;87.22;;;41.38;;
22705;SDS011;11520;51.198;4.468;2022-12-04T09:36:13;89.65;;;41.15;;
22705;SDS011;11520;51.198;4.468;2022-12-04T09:38:45;84.95;;;40.75;;
22705;SDS011;11520;51.198;4.468;2022-12-04T09:41:19;87.50;;;39.03;;
22705;SDS011;11520;51.198;4.468;2022-12-04T09:47:26;88.95;;;41.47;;
22705;SDS011;11520;51.198;4.468;2022-12-04T09:50:15;87.90;;;39.80;;
22705;SDS011;11520;51.198;4.468;2022-12-04T09:53:14;81.97;;;39.25;;
22705;SDS011;11520;51.198;4.468;2022-12-04T09:58:27;77.57;;;38.70;;
22705;SDS011;11520;51.198;4.468;2022-12-04T10:01:03;82.30;;;38.38;;
22705;SDS011;11520;51.198;4.468;2022-12-04T10:03:29;75.50;;;37.15;;
22705;SDS011;11520;51.198;4.468;2022-12-04T10:06:07;77.47;;;38.28;;
22705;SDS011;11520;51.198;4.468;2022-12-04T10:08:42;79.57;;;37.50;;
22705;SDS011;11520;51.198;4.468;2022-12-04T10:11:21;72.00;;;37.85;;
22705;SDS011;11520;51.198;4.468;2022-12-04T10:24:27;69.40;;;35.72;;
22705;SDS011;11520;51.198;4.468;2022-12-04T10:27:18;73.30;;;35.45;;
22705;SDS011;11520;51.198;4.468;2022-12-04T10:29:46;73.55;;;37.60;;
22705;SDS011;11520;51.198;4.468;2022-12-04T10:32:20;77.30;;;37.88;;
22705;SDS011;11520;51.198;4.468;2022-12-04T10:34:50;69.18;;;33.97;;
22705;SDS011;11520;51.198;4.468;2022-12-04T10:37:19;72.70;;;36.25;;
22705;SDS011;11520;51.198;4.468;2022-12-04T10:45:11;66.68;;;33.78;;
22705;SDS011;11520;51.198;4.468;2022-12-04T10:47:38;61.92;;;33.35;;
22705;SDS011;11520;51.198;4.468;2022-12-04T10:50:12;67.28;;;33.22;;
22705;SDS011;11520;51.198;4.468;2022-12-04T10:52:45;65.32;;;34.75;;
22705;SDS011;11520;51.198;4.468;2022-12-04T10:55:12;76.13;;;37.53;;
22705;SDS011;11520;51.198;4.468;2022-12-04T10:57:43;84.10;;;39.80;;
22705;SDS011;11520;51.198;4.468;2022-12-04T11:02:59;63.03;;;33.95;;
22705;SDS011;11520;51.198;4.468;2022-12-04T11:08:20;61.97;;;33.05;;
22705;SDS011;11520;51.198;4.468;2022-12-04T11:13:26;47.25;;;25.15;;
22705;SDS011;11520;51.198;4.468;2022-12-04T11:15:53;45.80;;;25.00;;
22705;SDS011;11520;51.198;4.468;2022-12-04T11:18:23;44.80;;;24.92;;
22705;SDS011;11520;51.198;4.468;2022-12-04T11:20:52;48.13;;;25.88;;
22705;SDS011;11520;51.198;4.468;2022-12-04T11:23:19;46.40;;;25.55;;
22705;SDS011;11520;51.198;4.468;2022-12-04T11:25:47;46.25;;;24.83;;
22705;SDS011;11520;51.198;4.468;2022-12-04T11:28:19;43.42;;;25.10;;
22705;SDS011;11520;51.198;4.468;2022-12-04T11:30:52;45.90;;;26.50;;
22705;SDS011;11520;51.198;4.468;2022-12-04T11:35:54;50.15;;;29.35;;
22705;SDS011;11520;51.198;4.468;2022-12-04T11:38:25;45.85;;;27.42;;
22705;SDS011;11520;51.198;4.468;2022-12-04T11:40:55;56.75;;;31.55;;
22705;SDS011;11520;51.198;4.468;2022-12-04T11:43:25;47.20;;;27.90;;
22705;SDS011;11520;51.198;4.468;2022-12-04T11:45:53;54.80;;;30.85;;
22705;SDS011;11520;51.198;4.468;2022-12-04T11:48:30;52.25;;;29.83;;
22705;SDS011;11520;51.198;4.468;2022-12-04T11:56:28;58.33;;;33.17;;
22705;SDS011;11520;51.198;4.468;2022-12-04T12:10:48;54.92;;;29.95;;
22705;SDS011;11520;51.198;4.468;2022-12-04T12:22:31;44.28;;;24.35;;
22705;SDS011;11520;51.198;4.468;2022-12-04T12:30:07;46.30;;;25.55;;
22705;SDS011;11520;51.198;4.468;2022-12-04T12:35:37;41.72;;;23.10;;
22705;SDS011;11520;51.198;4.468;2022-12-04T12:38:09;42.00;;;23.80;;
22705;SDS011;11520;51.198;4.468;2022-12-04T12:40:47;42.83;;;23.40;;
22705;SDS011;11520;51.198;4.468;2022-12-04T12:43:37;33.70;;;20.73;;
22705;SDS011;11520;51.198;4.468;2022-12-04T12:51:34;35.88;;;21.70;;
22705;SDS011;11520;51.198;4.468;2022-12-04T12:56:54;42.90;;;23.65;;
22705;SDS011;11520;51.198;4.468;2022-12-04T12:59:26;43.60;;;24.88;;
22705;SDS011;11520;51.198;4.468;2022-12-04T13:02:13;44.90;;;24.20;;
22705;SDS011;11520;51.198;4.468;2022-12-04T13:04:51;43.80;;;22.98;;
22705;SDS011;11520;51.198;4.468;2022-12-04T13:07:22;46.00;;;24.85;;
22705;SDS011;11520;51.198;4.468;2022-12-04T13:10:00;50.45;;;26.60;;
22705;SDS011;11520;51.198;4.468;2022-12-04T13:12:59;50.80;;;27.00;;
22705;SDS011;11520;51.198;4.468;2022-12-04T13:15:44;48.72;;;27.92;;
22705;SDS011;11520;51.198;4.468;2022-12-04T13:18:29;48.92;;;27.23;;
22705;SDS011;11520;51.198;4.468;2022-12-04T13:21:07;50.95;;;27.77;;
22705;SDS011;11520;51.198;4.468;2022-12-04T13:26:45;56.35;;;29.20;;
22705;SDS011;11520;51.198;4.468;2022-12-04T13:32:43;52.63;;;28.40;;
22705;SDS011;11520;51.198;4.468;2022-12-04T13:41:11;54.05;;;28.55;;
22705;SDS011;11520;51.198;4.468;2022-12-04T13:46:30;52.85;;;28.40;;
22705;SDS011;11520;51.198;4.468;2022-12-04T13:51:44;59.40;;;30.92;;
22705;SDS011;11520;51.198;4.468;2022-12-04T13:59:47;58.25;;;31.80;;
22705;SDS011;11520;51.198;4.468;2022-12-04T14:02:24;61.97;;;31.65;;
22705;SDS011;11520;51.198;4.468;2022-12-04T14:05:06;61.63;;;32.72;;
22705;SDS011;11520;51.198;4.468;2022-12-04T14:07:38;57.45;;;31.75;;
22705;SDS011;11520;51.198;4.468;2022-12-04T14:12:43;68.00;;;31.88;;
22705;SDS011;11520;51.198;4.468;2022-12-04T14:15:22;62.67;;;32.20;;
22705;SDS011;11520;51.198;4.468;2022-12-04T14:20:39;59.97;;;31.10;;
22705;SDS011;11520;51.198;4.468;2022-12-04T14:23:26;59.20;;;33.00;;
22705;SDS011;11520;51.198;4.468;2022-12-04T14:25:58;55.37;;;31.30;;
22705;SDS011;11520;51.198;4.468;2022-12-04T14:31:12;56.72;;;30.95;;
22705;SDS011;11520;51.198;4.468;2022-12-04T14:33:55;57.45;;;31.75;;
22705;SDS011;11520;51.198;4.468;2022-12-04T14:36:42;56.47;;;31.33;;
22705;SDS011;11520;51.198;4.468;2022-12-04T14:39:19;61.67;;;32.25;;
22705;SDS011;11520;51.198;4.468;2022-12-04T14:42:03;60.33;;;32.63;;
22705;SDS011;11520;51.198;4.468;2022-12-04T14:44:40;64.72;;;33.88;;
22705;SDS011;11520;51.198;4.468;2022-12-04T14:53:35;65.93;;;36.30;;
22705;SDS011;11520;51.198;4.468;2022-12-04T14:58:38;61.30;;;34.25;;
22705;SDS011;11520;51.198;4.468;2022-12-04T15:01:19;64.25;;;33.75;;
22705;SDS011;11520;51.198;4.468;2022-12-04T15:03:52;65.03;;;34.83;;
22705;SDS011;11520;51.198;4.468;2022-12-04T15:06:28;59.53;;;33.65;;
22705;SDS011;11520;51.198;4.468;2022-12-04T15:09:00;63.20;;;34.33;;
22705;SDS011;11520;51.198;4.468;2022-12-04T15:12:37;58.30;;;32.83;;
22705;SDS011;11520;51.198;4.468;2022-12-04T15:15:00;59.42;;;32.95;;
22705;SDS011;11520;51.198;4.468;2022-12-04T15:17:40;63.22;;;33.50;;
22705;SDS011;11520;51.198;4.468;2022-12-04T15:20:06;59.03;;;33.63;;
22705;SDS011;11520;51.198;4.468;2022-12-04T15:22:33;61.25;;;34.70;;
22705;SDS011;11520;51.198;4.468;2022-12-04T15:25:00;60.20;;;32.88;;
22705;SDS011;11520;51.198;4.468;2022-12-04T15:27:27;58.95;;;33.17;;
22705;SDS011;11520;51.198;4.468;2022-12-04T15:29:54;58.45;;;31.45;;
22705;SDS011;11520;51.198;4.468;2022-12-04T15:32:21;53.78;;;30.33;;
22705;SDS011;11520;51.198;4.468;2022-12-04T15:34:54;58.17;;;31.75;;
22705;SDS011;11520;51.198;4.468;2022-12-04T15:37:26;60.45;;;32.58;;
22705;SDS011;11520;51.198;4.468;2022-12-04T15:39:56;62.53;;;33.05;;
22705;SDS011;11520;51.198;4.468;2022-12-04T15:50:16;58.25;;;31.35;;
22705;SDS011;11520;51.198;4.468;2022-12-04T15:52:57;59.25;;;32.42;;
22705;SDS011;11520;51.198;4.468;2022-12-04T15:58:32;60.35;;;33.35;;
22705;SDS011;11520;51.198;4.468;2022-12-04T16:01:00;56.45;;;32.15;;
22705;SDS011;11520;51.198;4.468;2022-12-04T16:06:26;58.38;;;32.70;;
22705;SDS011;11520;51.198;4.468;2022-12-04T16:09:11;54.45;;;31.90;;
22705;SDS011;11520;51.198;4.468;2022-12-04T16:11:44;58.17;;;33.10;;
22705;SDS011;11520;51.198;4.468;2022-12-04T16:16:36;59.35;;;33.97;;
22705;SDS011;11520;51.198;4.468;2022-12-04T16:19:39;58.50;;;33.70;;
22705;SDS011;11520;51.198;4.468;2022-12-04T16:24:26;61.15;;;34.17;;
22705;SDS011;11520;51.198;4.468;2022-12-04T16:26:52;59.28;;;31.80;;
22705;SDS011;11520;51.198;4.468;2022-12-04T16:29:19;54.10;;;32.53;;
22705;SDS011;11520;51.198;4.468;2022-12-04T16:31:46;53.83;;;31.13;;
22705;SDS011;11520;51.198;4.468;2022-12-04T16:34:12;55.25;;;31.40;;
22705;SDS011;11520;51.198;4.468;2022-12-04T16:36:38;55.33;;;32.05;;
22705;SDS011;11520;51.198;4.468;2022-12-04T16:39:04;55.50;;;31.52;;
22705;SDS011;11520;51.198;4.468;2022-12-04T16:41:31;49.55;;;29.35;;
22705;SDS011;11520;51.198;4.468;2022-12-04T16:43:57;57.05;;;31.85;;
22705;SDS011;11520;51.198;4.468;2022-12-04T16:46:25;49.92;;;29.73;;
22705;SDS011;11520;51.198;4.468;2022-12-04T16:48:53;53.78;;;30.90;;
22705;SDS011;11520;51.198;4.468;2022-12-04T16:51:22;51.47;;;30.58;;
22705;SDS011;11520;51.198;4.468;2022-12-04T16:53:51;50.58;;;29.40;;
22705;SDS011;11520;51.198;4.468;2022-12-04T16:56:19;48.60;;;29.25;;
22705;SDS011;11520;51.198;4.468;2022-12-04T16:58:47;52.60;;;29.63;;
22705;SDS011;11520;51.198;4.468;2022-12-04T17:01:28;51.97;;;29.95;;
22705;SDS011;11520;51.198;4.468;2022-12-04T17:04:07;54.20;;;31.40;;
22705;SDS011;11520;51.198;4.468;2022-12-04T17:06:33;50.72;;;29.58;;
22705;SDS011;11520;51.198;4.468;2022-12-04T17:09:01;54.72;;;31.13;;
22705;SDS011;11520;51.198;4.468;2022-12-04T17:11:29;53.15;;;30.75;;
22705;SDS011;11520;51.198;4.468;2022-12-04T17:13:55;50.70;;;28.45;;
22705;SDS011;11520;51.198;4.468;2022-12-04T17:16:21;51.13;;;29.83;;
22705;SDS011;11520;51.198;4.468;2022-12-04T17:18:49;51.75;;;29.73;;
22705;SDS011;11520;51.198;4.468;2022-12-04T17:21:15;48.10;;;29.20;;
22705;SDS011;11520;51.198;4.468;2022-12-04T17:23:41;51.55;;;30.48;;
22705;SDS011;11520;51.198;4.468;2022-12-04T17:26:12;50.08;;;31.00;;
22705;SDS011;11520;51.198;4.468;2022-12-04T17:28:39;52.20;;;30.15;;
22705;SDS011;11520;51.198;4.468;2022-12-04T17:31:11;51.25;;;30.35;;
22705;SDS011;11520;51.198;4.468;2022-12-04T17:33:39;53.00;;;31.58;;
22705;SDS011;11520;51.198;4.468;2022-12-04T17:38:41;59.08;;;33.60;;
22705;SDS011;11520;51.198;4.468;2022-12-04T17:41:07;60.63;;;36.58;;
22705;SDS011;11520;51.198;4.468;2022-12-04T17:43:35;52.83;;;31.38;;
22705;SDS011;11520;51.198;4.468;2022-12-04T17:46:07;54.40;;;33.90;;
22705;SDS011;11520;51.198;4.468;2022-12-04T17:48:34;66.55;;;36.95;;
22705;SDS011;11520;51.198;4.468;2022-12-04T17:51:08;56.58;;;33.58;;
22705;SDS011;11520;51.198;4.468;2022-12-04T17:53:39;61.13;;;34.70;;
22705;SDS011;11520;51.198;4.468;2022-12-04T17:56:08;55.83;;;33.40;;
22705;SDS011;11520;51.198;4.468;2022-12-04T17:58:39;54.80;;;32.72;;
22705;SDS011;11520;51.198;4.468;2022-12-04T18:01:07;54.15;;;33.03;;
22705;SDS011;11520;51.198;4.468;2022-12-04T18:03:37;55.17;;;32.47;;
22705;SDS011;11520;51.198;4.468;2022-12-04T18:06:13;56.95;;;32.50;;
22705;SDS011;11520;51.198;4.468;2022-12-04T18:08:42;55.75;;;30.15;;